createdAt,value
2023-03-10T00:01:03.955Z,28.62
2023-03-10T00:03:34.838Z,28.63
2023-03-10T00:06:05.727Z,28.66
2023-03-10T00:08:36.477Z,28.66
2023-03-10T00:11:07.656Z,28.67
2023-03-10T00:13:38.553Z,28.67
2023-03-10T00:16:11.434Z,28.77
2023-03-10T00:18:43.411Z,28.82
2023-03-10T00:21:22.898Z,28.86
2023-03-10T00:23:54.369Z,28.87
2023-03-10T00:26:28.332Z,28.88
2023-03-10T00:28:59.442Z,28.92
2023-03-10T00:31:32.110Z,28.94
2023-03-10T00:34:03.867Z,28.96
2023-03-10T00:36:35.550Z,28.99
2023-03-10T00:39:06.398Z,29.05
2023-03-10T00:41:39.937Z,29.11
2023-03-10T00:44:10.910Z,29.15
2023-03-10T00:46:42.132Z,29.23
2023-03-10T00:49:17.654Z,29.27
2023-03-10T00:51:49.110Z,29.39
2023-03-10T00:54:21.859Z,29.46
2023-03-10T00:56:52.504Z,29.50
2023-03-10T00:59:22.968Z,29.52
2023-03-10T01:01:54.135Z,29.52
2023-03-10T01:04:24.662Z,29.51
2023-03-10T01:06:55.615Z,29.53
2023-03-10T01:09:26.189Z,29.60
2023-03-10T01:11:56.494Z,29.62
2023-03-10T01:14:26.933Z,29.65
2023-03-10T01:16:57.986Z,29.64
2023-03-10T01:19:29.160Z,29.62
2023-03-10T01:21:59.789Z,29.66
2023-03-10T01:24:31.458Z,29.73
2023-03-10T01:27:04.248Z,29.71
2023-03-10T01:29:36.041Z,29.79
2023-03-10T01:32:07.036Z,29.81
2023-03-10T01:34:37.597Z,29.82
2023-03-10T01:37:08.308Z,29.75
2023-03-10T01:39:39.156Z,29.79
2023-03-10T01:42:11.329Z,29.79
2023-03-10T01:44:42.225Z,29.78
2023-03-10T01:47:14.124Z,29.82
2023-03-10T01:49:47.890Z,29.84
2023-03-10T01:52:24.977Z,29.86
2023-03-10T01:55:03.033Z,29.86
2023-03-10T01:57:37.392Z,29.88
2023-03-10T02:00:13.288Z,29.86
2023-03-10T02:03:26.259Z,30.00
2023-03-10T02:06:00.266Z,30.04
2023-03-10T02:08:34.552Z,30.09
2023-03-10T02:11:06.230Z,30.17
2023-03-10T02:13:36.699Z,30.20
2023-03-10T02:16:07.567Z,30.31
2023-03-10T02:18:38.302Z,30.33
2023-03-10T02:21:34.398Z,30.50
2023-03-10T02:24:12.727Z,30.62
2023-03-10T02:27:26.997Z,30.63
2023-03-10T02:30:22.193Z,30.61
2023-03-10T02:33:02.409Z,30.66
2023-03-10T02:35:38.538Z,30.68
2023-03-10T02:38:16.380Z,30.74
2023-03-10T02:40:55.744Z,30.83
2023-03-10T02:43:34.339Z,30.84
2023-03-10T02:46:12.729Z,30.91
2023-03-10T02:48:46.568Z,31.01
2023-03-10T02:51:30.333Z,31.15
2023-03-10T02:54:04.568Z,31.24
2023-03-10T02:56:38.857Z,31.25
2023-03-10T02:59:10.226Z,31.34
2023-03-10T03:01:46.227Z,31.28
2023-03-10T03:04:17.619Z,31.24
2023-03-10T03:06:48.878Z,31.19
2023-03-10T03:09:19.858Z,31.18
2023-03-10T03:11:50.885Z,31.10
2023-03-10T03:14:29.827Z,31.02
2023-03-10T03:17:00.625Z,31.07
2023-03-10T03:19:33.083Z,31.16
2023-03-10T03:22:03.544Z,31.14
2023-03-10T03:24:34.125Z,31.20
2023-03-10T03:27:06.607Z,31.32
2023-03-10T03:29:38.425Z,31.32
2023-03-10T03:32:10.094Z,31.42
2023-03-10T03:34:41.074Z,31.43
2023-03-10T03:37:13.002Z,31.43
2023-03-10T03:39:44.483Z,31.47
2023-03-10T03:42:15.351Z,31.45
2023-03-10T03:44:53.888Z,31.47
2023-03-10T03:47:25.591Z,31.44
2023-03-10T03:49:59.111Z,31.38
2023-03-10T03:52:30.721Z,31.40
2023-03-10T03:55:01.827Z,31.38
2023-03-10T03:57:33.022Z,31.37
2023-03-10T04:00:09.997Z,31.38
2023-03-10T04:02:42.605Z,31.43
2023-03-10T04:05:13.618Z,31.48
2023-03-10T04:07:45.021Z,31.47
2023-03-10T04:10:18.735Z,31.45
2023-03-10T04:12:49.523Z,31.45
2023-03-10T04:15:30.408Z,31.44
2023-03-10T04:18:02.308Z,31.40
2023-03-10T04:20:33.185Z,31.45
2023-03-10T04:23:05.096Z,31.46
2023-03-10T04:25:38.113Z,31.47
2023-03-10T04:28:08.618Z,31.53
2023-03-10T04:30:39.839Z,31.63
2023-03-10T04:33:12.285Z,31.72
2023-03-10T04:35:48.429Z,31.74
2023-03-10T04:38:20.988Z,31.81
2023-03-10T04:40:56.667Z,31.84
2023-03-10T04:43:31.104Z,31.80
2023-03-10T04:46:02.675Z,31.80
2023-03-10T04:48:33.655Z,31.75
2023-03-10T04:51:07.894Z,31.71
2023-03-10T04:53:44.917Z,31.67
2023-03-10T04:56:18.618Z,31.63
2023-03-10T04:58:49.967Z,31.57
2023-03-10T05:01:20.580Z,31.52
2023-03-10T05:03:55.925Z,31.50
2023-03-10T05:06:28.674Z,31.42
2023-03-10T05:09:16.043Z,31.37
2023-03-10T05:11:48.012Z,31.33
2023-03-10T05:14:19.509Z,31.28
2023-03-10T05:16:51.622Z,31.31
2023-03-10T05:19:22.110Z,31.32
2023-03-10T05:21:52.592Z,31.31
2023-03-10T05:24:23.822Z,31.32
2023-03-10T05:26:54.590Z,31.32
2023-03-10T05:29:25.813Z,31.36
2023-03-10T05:32:01.938Z,31.57
2023-03-10T05:34:37.837Z,31.70
2023-03-10T05:37:10.087Z,31.83
2023-03-10T05:39:40.968Z,31.80
2023-03-10T05:42:14.785Z,31.79
2023-03-10T05:44:46.251Z,31.80
2023-03-10T05:47:20.015Z,31.73
2023-03-10T05:49:52.168Z,31.72
2023-03-10T05:52:22.814Z,31.71
2023-03-10T05:54:53.908Z,31.70
2023-03-10T05:57:24.756Z,31.70
2023-03-10T05:59:55.583Z,31.70
2023-03-10T06:02:27.239Z,31.75
2023-03-10T06:04:58.780Z,31.78
2023-03-10T06:07:29.291Z,31.63
2023-03-10T06:09:59.913Z,31.56
2023-03-10T06:12:31.923Z,31.51
2023-03-10T06:15:02.957Z,31.49
2023-03-10T06:17:33.664Z,31.56
2023-03-10T06:20:05.149Z,31.61
2023-03-10T06:22:35.938Z,31.71
2023-03-10T06:25:06.672Z,31.71
2023-03-10T06:27:38.757Z,31.71
2023-03-10T06:30:11.013Z,31.73
2023-03-10T06:32:42.234Z,31.71
2023-03-10T06:35:16.913Z,31.65
2023-03-10T06:37:47.517Z,31.58
2023-03-10T06:40:18.502Z,31.48
2023-03-10T06:42:49.221Z,31.45
2023-03-10T06:45:20.230Z,31.26
2023-03-10T06:47:50.955Z,31.03
2023-03-10T06:50:24.256Z,30.97
2023-03-10T06:52:55.142Z,30.97
2023-03-10T06:55:25.975Z,30.94
2023-03-10T06:57:56.755Z,30.95
2023-03-10T07:00:27.554Z,30.97
2023-03-10T07:02:58.036Z,31.01
2023-03-10T07:05:29.431Z,31.02
2023-03-10T07:08:00.049Z,31.02
2023-03-10T07:10:30.862Z,31.00
2023-03-10T07:13:01.775Z,31.01
2023-03-10T07:15:33.116Z,31.02
2023-03-10T07:18:03.971Z,31.07
2023-03-10T07:20:34.702Z,31.11
2023-03-10T07:23:07.053Z,31.17
2023-03-10T07:25:38.179Z,31.21
2023-03-10T07:28:09.647Z,31.21
2023-03-10T07:30:41.005Z,31.24
2023-03-10T07:33:12.392Z,31.24
2023-03-10T07:35:42.976Z,31.22
2023-03-10T07:38:14.307Z,31.25
2023-03-10T07:40:44.985Z,31.20
2023-03-10T07:43:15.316Z,31.10
2023-03-10T07:45:46.061Z,31.16
2023-03-10T07:48:16.452Z,31.19
2023-03-10T07:50:47.122Z,31.22
2023-03-10T07:53:17.741Z,31.19
2023-03-10T07:55:48.457Z,31.23
2023-03-10T07:58:19.277Z,31.22
2023-03-10T08:00:59.155Z,31.28
2023-03-10T08:03:31.190Z,31.28
2023-03-10T08:06:03.544Z,31.29
2023-03-10T08:08:34.016Z,31.26
2023-03-10T08:11:13.667Z,31.28
2023-03-10T08:13:47.000Z,31.28
2023-03-10T08:16:19.275Z,31.24
2023-03-10T08:18:52.389Z,31.28
2023-03-10T08:21:23.267Z,31.28
2023-03-10T08:23:55.121Z,31.25
2023-03-10T08:26:34.282Z,31.23
2023-03-10T08:29:05.011Z,31.24
2023-03-10T08:31:35.701Z,31.25
2023-03-10T08:34:10.025Z,31.26
2023-03-10T08:36:41.218Z,31.26
2023-03-10T08:39:13.768Z,31.23
2023-03-10T08:41:50.733Z,31.29
2023-03-10T08:44:23.182Z,31.30
2023-03-10T08:46:54.308Z,31.31
2023-03-10T08:49:25.110Z,31.31
2023-03-10T08:51:56.166Z,31.28
2023-03-10T08:54:26.732Z,31.27
2023-03-10T08:56:57.155Z,31.26
2023-03-10T08:59:29.885Z,31.29
2023-03-10T09:02:00.453Z,31.36
2023-03-10T09:04:31.549Z,31.42
2023-03-10T09:07:02.293Z,31.42
2023-03-10T09:09:32.812Z,31.35
2023-03-10T09:12:04.068Z,31.31
2023-03-10T09:14:39.425Z,31.29
2023-03-10T09:17:11.856Z,31.27
2023-03-10T09:19:42.645Z,31.22
2023-03-10T09:22:14.887Z,31.23
2023-03-10T09:24:45.566Z,31.19
2023-03-10T09:27:16.208Z,31.07
2023-03-10T09:32:22.340Z,31.04
2023-03-10T09:34:53.320Z,31.01
2023-03-10T09:37:23.955Z,30.99
2023-03-10T09:39:55.511Z,30.98
2023-03-10T09:42:38.724Z,31.01
2023-03-10T09:45:30.951Z,30.98
2023-03-10T09:48:18.788Z,30.92
2023-03-10T09:50:57.705Z,30.89
2023-03-10T09:53:37.038Z,30.87
2023-03-10T09:56:22.744Z,30.82
2023-03-10T09:59:10.573Z,30.76
2023-03-10T10:01:45.349Z,30.71
2023-03-10T10:04:23.153Z,30.71
2023-03-10T10:06:53.914Z,30.72
2023-03-10T10:09:31.608Z,30.65
2023-03-10T10:12:25.993Z,30.68
2023-03-10T10:15:01.296Z,30.65
2023-03-10T10:17:39.231Z,30.70
2023-03-10T10:20:24.761Z,30.72
2023-03-10T10:22:55.722Z,30.68
2023-03-10T10:25:28.338Z,30.62
2023-03-10T10:28:01.229Z,30.63
2023-03-10T10:30:37.987Z,30.59
2023-03-10T10:33:14.794Z,30.57
2023-03-10T10:36:06.152Z,30.57
2023-03-10T10:38:37.154Z,30.52
2023-03-10T10:41:19.872Z,30.46
2023-03-10T10:43:53.383Z,30.45
2023-03-10T10:46:31.620Z,30.39
2023-03-10T10:49:35.572Z,30.35
2023-03-10T10:52:11.748Z,30.36
2023-03-10T10:54:48.253Z,30.28
2023-03-10T10:57:22.019Z,30.29
2023-03-10T10:59:54.572Z,30.25
2023-03-10T11:02:32.651Z,30.30
2023-03-10T11:05:39.603Z,30.30
2023-03-10T11:08:28.208Z,30.29
2023-03-10T11:11:09.838Z,30.26
2023-03-10T11:13:46.487Z,30.28
2023-03-10T11:16:57.621Z,30.43
2023-03-10T11:20:07.809Z,30.48
2023-03-10T11:22:38.479Z,30.40
2023-03-10T11:25:33.120Z,30.38
2023-03-10T11:28:49.946Z,30.32
2023-03-10T11:31:41.794Z,30.31
2023-03-10T11:34:33.815Z,30.26
2023-03-10T11:37:15.392Z,30.26
2023-03-10T11:40:22.859Z,30.33
2023-03-10T11:43:01.891Z,30.29
2023-03-10T11:45:38.660Z,30.28
2023-03-10T11:48:42.548Z,30.27
2023-03-10T11:51:44.292Z,30.29
2023-03-10T11:54:35.201Z,30.26
2023-03-10T11:57:15.159Z,30.24
2023-03-10T11:59:58.499Z,30.24
2023-03-10T12:03:05.283Z,30.08
2023-03-10T12:05:54.565Z,30.25
2023-03-10T12:08:30.098Z,30.27
2023-03-10T12:11:03.293Z,30.32
2023-03-10T12:13:58.101Z,30.33
2023-03-10T12:16:32.475Z,30.30
2023-03-10T12:19:03.787Z,30.29
2023-03-10T12:21:37.468Z,30.28
2023-03-10T12:24:46.981Z,30.32
2023-03-10T12:27:17.339Z,30.29
2023-03-10T12:29:47.909Z,30.29
2023-03-10T12:32:43.991Z,30.30
2023-03-10T12:35:46.745Z,30.29
2023-03-10T12:39:00.200Z,30.31
2023-03-10T12:41:40.513Z,30.26
2023-03-10T12:44:44.725Z,30.28
2023-03-10T12:47:34.870Z,30.25
2023-03-10T12:50:28.573Z,30.26
2023-03-10T12:53:26.995Z,30.19
2023-03-10T12:56:15.501Z,30.20
2023-03-10T12:58:54.206Z,30.19
2023-03-10T13:01:55.540Z,30.22
2023-03-10T13:04:28.154Z,30.13
2023-03-10T13:07:04.594Z,30.11
2023-03-10T13:09:39.930Z,30.12
2023-03-10T13:12:23.181Z,30.10
2023-03-10T13:14:56.828Z,30.10
2023-03-10T13:17:30.606Z,30.08
2023-03-10T13:20:03.166Z,30.08
2023-03-10T13:22:34.335Z,30.06
2023-03-10T13:25:09.155Z,30.00
2023-03-10T13:27:39.979Z,29.96
2023-03-10T13:30:21.202Z,29.96
2023-03-10T13:33:03.516Z,29.91
2023-03-10T13:35:37.131Z,29.84
2023-03-10T13:38:22.823Z,29.85
2023-03-10T13:41:08.599Z,29.84
2023-03-10T13:43:41.126Z,29.82
2023-03-10T13:46:26.697Z,29.85
2023-03-10T13:49:04.687Z,29.74
2023-03-10T13:51:39.559Z,29.64
2023-03-10T13:54:45.929Z,29.55
2023-03-10T13:57:32.925Z,29.57
2023-03-10T14:00:09.411Z,29.56
2023-03-10T14:02:42.916Z,29.55
2023-03-10T14:05:44.667Z,29.58
2023-03-10T14:08:23.020Z,29.55
2023-03-10T14:10:53.997Z,29.53
2023-03-10T14:13:44.776Z,29.51
2023-03-10T14:16:17.465Z,29.51
2023-03-10T14:18:47.778Z,29.48
2023-03-10T14:22:00.071Z,29.45
2023-03-10T14:24:32.748Z,29.49
2023-03-10T14:27:03.100Z,29.43
2023-03-10T14:29:34.153Z,29.44
2023-03-10T14:32:04.528Z,29.46
2023-03-10T14:34:35.043Z,29.47
2023-03-10T14:37:05.595Z,29.47
2023-03-10T14:39:36.292Z,29.43
2023-03-10T14:42:10.777Z,29.43
2023-03-10T14:44:41.159Z,29.38
2023-03-10T14:47:12.340Z,29.37
2023-03-10T14:49:42.845Z,29.33
2023-03-10T14:52:16.859Z,29.32
2023-03-10T14:54:48.325Z,29.28
2023-03-10T14:57:22.387Z,29.27
2023-03-10T14:59:52.824Z,29.30
2023-03-10T15:02:25.611Z,29.31
2023-03-10T15:04:57.286Z,29.29
2023-03-10T15:07:27.746Z,29.23
2023-03-10T15:10:10.507Z,29.25
2023-03-10T15:12:52.156Z,29.22
2023-03-10T15:15:28.903Z,29.20
2023-03-10T15:17:59.998Z,29.16
2023-03-10T15:20:30.262Z,29.17
2023-03-10T15:23:00.966Z,29.16
2023-03-10T15:25:31.332Z,29.16
2023-03-10T15:28:02.401Z,29.14
2023-03-10T15:30:37.259Z,29.06
2023-03-10T15:33:08.187Z,29.08
2023-03-10T15:35:39.361Z,29.17
2023-03-10T15:38:09.850Z,29.19
2023-03-10T15:40:43.342Z,29.20
2023-03-10T15:43:14.265Z,29.13
2023-03-10T15:45:50.043Z,29.07
2023-03-10T15:48:20.450Z,29.12
2023-03-10T15:50:51.362Z,29.08
2023-03-10T15:53:21.864Z,29.03
2023-03-10T15:55:53.591Z,29.03
2023-03-10T15:58:24.340Z,29.02
2023-03-10T16:00:54.556Z,29.02
2023-03-10T16:03:24.867Z,29.03
2023-03-10T16:05:55.952Z,29.07
2023-03-10T16:08:26.583Z,28.99
2023-03-10T16:11:00.029Z,29.05
2023-03-10T16:13:30.642Z,28.95
2023-03-10T16:16:06.792Z,28.98
2023-03-10T16:18:37.808Z,28.91
2023-03-10T16:21:08.567Z,28.92
2023-03-10T16:23:39.920Z,28.93
2023-03-10T16:26:13.651Z,28.93
2023-03-10T16:28:46.871Z,28.86
2023-03-10T16:31:20.538Z,28.86
2023-03-10T16:33:53.997Z,28.82
2023-03-10T16:36:29.321Z,28.81
2023-03-10T16:38:59.783Z,28.78
2023-03-10T16:41:30.582Z,28.74
2023-03-10T16:44:05.778Z,28.73
2023-03-10T16:46:36.606Z,28.71
2023-03-10T16:49:08.269Z,28.67
2023-03-10T16:51:43.055Z,28.67
2023-03-10T16:54:23.393Z,28.64
2023-03-10T16:56:57.944Z,28.62
2023-03-10T16:59:29.694Z,28.61
2023-03-10T17:02:00.260Z,28.57
2023-03-10T17:04:30.858Z,28.57
2023-03-10T17:07:01.397Z,28.56
2023-03-10T17:09:31.867Z,28.55
2023-03-10T17:12:03.634Z,28.53
2023-03-10T17:14:34.592Z,28.51
2023-03-10T17:17:07.383Z,28.50
2023-03-10T17:19:38.253Z,28.48
2023-03-10T17:22:08.605Z,28.44
2023-03-10T17:24:39.156Z,28.45
2023-03-10T17:27:09.676Z,28.43
2023-03-10T17:29:41.229Z,28.40
2023-03-10T17:32:11.728Z,28.40
2023-03-10T17:34:43.144Z,28.41
2023-03-10T17:37:13.709Z,28.40
2023-03-10T17:39:44.353Z,28.40
2023-03-10T17:42:14.924Z,28.38
2023-03-10T17:44:45.255Z,28.37
2023-03-10T17:47:15.884Z,28.36
2023-03-10T17:49:46.581Z,28.35
2023-03-10T17:52:17.157Z,28.32
2023-03-10T17:54:48.885Z,28.32
2023-03-10T17:57:19.581Z,28.29
2023-03-10T17:59:51.926Z,28.29
2023-03-10T18:02:22.427Z,28.28
2023-03-10T18:04:53.288Z,28.27
2023-03-10T18:07:25.488Z,28.23
2023-03-10T18:10:00.212Z,28.24
2023-03-10T18:12:30.656Z,28.24
2023-03-10T18:15:01.333Z,28.22
2023-03-10T18:17:32.216Z,28.20
2023-03-10T18:20:04.886Z,28.19
2023-03-10T18:22:35.735Z,28.19
2023-03-10T18:25:06.770Z,28.17
2023-03-10T18:27:37.412Z,28.16
2023-03-10T18:30:09.082Z,28.13
2023-03-10T18:32:39.909Z,28.12
2023-03-10T18:35:12.420Z,28.12
2023-03-10T18:37:42.660Z,28.12
2023-03-10T18:40:19.697Z,28.14
2023-03-10T18:42:50.758Z,28.10
2023-03-10T18:45:24.694Z,28.09
2023-03-10T18:47:55.620Z,28.06
2023-03-10T18:50:26.466Z,28.06
2023-03-10T18:52:56.908Z,28.04
2023-03-10T18:55:37.034Z,28.08
2023-03-10T18:58:07.553Z,28.06
2023-03-10T19:00:39.363Z,28.02
2023-03-10T19:03:11.473Z,28.03
2023-03-10T19:05:43.049Z,28.05
2023-03-10T19:08:13.751Z,28.04
2023-03-10T19:10:46.312Z,28.01
2023-03-10T19:13:16.574Z,28.00
2023-03-10T19:15:47.633Z,27.98
2023-03-10T19:18:18.327Z,27.97
2023-03-10T19:20:48.708Z,27.94
2023-03-10T19:23:19.846Z,27.96
2023-03-10T19:25:50.319Z,27.91
2023-03-10T19:28:21.449Z,27.91
2023-03-10T19:30:52.113Z,27.92
2023-03-10T19:33:22.540Z,27.89
2023-03-10T19:36:02.208Z,27.90
2023-03-10T19:38:32.738Z,27.90
2023-03-10T19:41:04.712Z,27.86
2023-03-10T19:43:36.746Z,27.84
2023-03-10T19:46:09.672Z,27.81
2023-03-10T19:48:41.023Z,27.81
2023-03-10T19:51:21.502Z,27.83
2023-03-10T19:53:57.360Z,27.81
2023-03-10T19:56:28.453Z,27.79
2023-03-10T19:58:59.108Z,27.78
2023-03-10T20:01:30.243Z,27.77
2023-03-10T20:04:03.297Z,27.77
2023-03-10T20:06:34.519Z,27.76
2023-03-10T20:09:05.627Z,27.74
2023-03-10T20:11:45.536Z,27.74
2023-03-10T20:14:16.225Z,27.71
2023-03-10T20:16:48.648Z,27.69
2023-03-10T20:19:23.579Z,27.66
2023-03-10T20:21:54.958Z,27.64
2023-03-10T20:24:26.295Z,27.66
2023-03-10T20:26:59.275Z,27.63
2023-03-10T20:29:30.107Z,27.64
2023-03-10T20:32:00.766Z,27.60
2023-03-10T20:34:31.967Z,27.59
2023-03-10T20:37:02.328Z,27.57
2023-03-10T20:39:32.734Z,27.59
2023-03-10T20:42:03.424Z,27.56
2023-03-10T20:44:34.151Z,27.53
2023-03-10T20:47:04.635Z,27.56
2023-03-10T20:49:35.103Z,27.54
2023-03-10T20:52:06.035Z,27.54
2023-03-10T20:54:36.605Z,27.51
2023-03-10T20:57:07.228Z,27.48
2023-03-10T20:59:38.267Z,27.50
2023-03-10T21:02:11.543Z,27.48
2023-03-10T21:04:42.268Z,27.49
2023-03-10T21:07:12.744Z,27.46
2023-03-10T21:09:45.880Z,27.47
2023-03-10T21:12:24.952Z,27.47
2023-03-10T21:14:55.539Z,27.45
2023-03-10T21:17:28.040Z,27.45
2023-03-10T21:19:59.995Z,27.45
2023-03-10T21:22:35.961Z,27.43
2023-03-10T21:25:08.326Z,27.43
2023-03-10T21:27:40.575Z,27.40
2023-03-10T21:30:13.695Z,27.41
2023-03-10T21:32:45.098Z,27.39
2023-03-10T21:35:15.903Z,27.37
2023-03-10T21:37:48.464Z,27.36
2023-03-10T21:40:21.295Z,27.36
2023-03-10T21:42:52.197Z,27.38
2023-03-10T21:45:26.097Z,27.35
2023-03-10T21:47:57.007Z,27.35
2023-03-10T21:50:28.057Z,27.34
2023-03-10T21:52:59.100Z,27.32
2023-03-10T21:55:30.398Z,27.31
2023-03-10T21:58:01.107Z,27.31
2023-03-10T22:00:31.378Z,27.30
2023-03-10T22:03:01.992Z,27.30
2023-03-10T22:05:32.631Z,27.27
2023-03-10T22:08:03.755Z,27.27
2023-03-10T22:10:36.582Z,27.27
2023-03-10T22:13:18.144Z,27.28
2023-03-10T22:15:48.907Z,27.24
2023-03-10T22:18:19.632Z,27.21
2023-03-10T22:20:50.313Z,27.21
2023-03-10T22:23:20.939Z,27.21
2023-03-10T22:26:10.461Z,27.19
2023-03-10T22:28:41.651Z,27.20
2023-03-10T22:31:12.952Z,27.22
2023-03-10T22:33:44.096Z,27.30
2023-03-10T22:36:15.174Z,27.32
2023-03-10T22:38:45.660Z,27.35
2023-03-10T22:41:16.471Z,27.40
2023-03-10T22:43:47.208Z,27.40
2023-03-10T22:46:18.204Z,27.42
2023-03-10T22:48:48.819Z,27.44
2023-03-10T22:51:20.268Z,27.44
2023-03-10T22:53:50.919Z,27.43
2023-03-10T22:56:22.407Z,27.45
2023-03-10T22:58:52.895Z,27.46
2023-03-10T23:01:24.144Z,27.48
2023-03-10T23:03:54.741Z,27.48
2023-03-10T23:06:27.253Z,27.38
2023-03-10T23:09:02.454Z,27.34
2023-03-10T23:11:34.367Z,27.30
2023-03-10T23:14:05.843Z,27.35
2023-03-10T23:16:37.396Z,27.33
2023-03-10T23:19:16.531Z,27.40
2023-03-10T23:21:49.184Z,27.43
2023-03-10T23:24:19.705Z,27.38
2023-03-10T23:26:50.454Z,27.41
2023-03-10T23:29:21.222Z,27.46
2023-03-10T23:31:51.495Z,27.33
2023-03-10T23:34:22.430Z,27.29
2023-03-10T23:36:53.437Z,27.28
2023-03-10T23:39:23.847Z,27.32
2023-03-10T23:41:55.128Z,27.25
2023-03-10T23:44:25.469Z,27.34
2023-03-10T23:46:56.874Z,27.32
2023-03-10T23:49:27.322Z,27.32
2023-03-10T23:51:58.063Z,27.48
2023-03-10T23:54:29.049Z,27.34
2023-03-10T23:56:59.591Z,27.41
2023-03-10T23:59:38.733Z,27.49
